PWSweather.com
Personal Weather Stations
Station Observations

LlefiĆ BadalonaES

Lat: 41.44, Lon: 2.2175

Elevation: 213.254

Station Type: oregon WMR918

http://www.estacionmeteorologicabadalonallefia.com

Latest ConditionsUpdated 9:53:28 AM GMT+01:01 Thursday, Mar 5, 2015
Currently Today's Max Today's Min Today's Average
Temperature 55.1°F12.8°C 55.1°F12.8°C 45.0°F7.2°C 48.1°F8.9°C
Dew Point 21.7°F-5.7°C 25.1°F-3.8°C 15.0°F-9.4°C 20.5°F-6.4°C
Winds 1.9 mph N3.1 kmh N 9.5 mph NW15.3 kmh NW - 3.3 mph 5.3 kmh
Wind Gusts 7.0 mph11.3 kmh 20.0 mph32.2 kmh - -
Humidity 27% 45% 27% 34%
Pressure 30.33 in1027.1 mb 30.39 in1029.1 mb 30.30 in1026.1 mb -
Hour Temp Dew Point Humidity Winds Wind Gusts Pressure Precip Precip Rate Daily Precip Total
09:53 AM 55.1°F12.8°C 21.7°F-5.7°C 27% 1.9 mph N3.1 kmh N 7.0 mph11.3 kmh 30.33 in1027.1 mb 0.00 in0.0 mm 0.00 in/hr0.0 mm/hr 0.00 in0.0 mm
09:43 AM 54.3°F12.4°C 21.0°F-6.1°C 27% 1.7 mph NW2.7 kmh NW 9.3 mph15.0 kmh 30.33 in1027.1 mb 0.00 in0.0 mm 0.00 in/hr0.0 mm/hr 0.00 in0.0 mm
09:33 AM 54.1°F12.3°C 20.8°F-6.2°C 27% Calm Calm 5.2 mph8.4 kmh 30.33 in1027.1 mb 0.00 in0.0 mm 0.00 in/hr0.0 mm/hr 0.00 in0.0 mm
09:23 AM 53.4°F11.9°C 20.2°F-6.6°C 27% 1.7 mph NE2.7 kmh NE 4.6 mph7.4 kmh 30.33 in1027.1 mb 0.00 in0.0 mm 0.00 in/hr0.0 mm/hr 0.00 in0.0 mm
09:13 AM 52.7°F11.5°C 19.6°F-6.9°C 27% 3.5 mph NNW5.6 kmh NNW 10.5 mph16.9 kmh 30.30 in1026.1 mb 0.00 in0.0 mm 0.00 in/hr0.0 mm/hr 0.00 in0.0 mm
09:03 AM 52.4°F11.3°C 19.4°F-7.0°C 27% 5.6 mph NNW9.0 kmh NNW 7.0 mph11.3 kmh 30.30 in1026.1 mb 0.00 in0.0 mm 0.00 in/hr0.0 mm/hr 0.00 in0.0 mm
08:53 AM 52.2°F11.2°C 19.2°F-7.1°C 27% 3.3 mph NE5.3 kmh NE 8.1 mph13.0 kmh 30.33 in1027.1 mb 0.00 in0.0 mm 0.00 in/hr0.0 mm/hr 0.00 in0.0 mm
08:43 AM 52.0°F11.1°C 19.0°F-7.2°C 27% 4.6 mph NW7.4 kmh NW 20.0 mph32.2 kmh 30.30 in1026.1 mb 0.00 in0.0 mm 0.00 in/hr0.0 mm/hr 0.00 in0.0 mm
08:33 AM 52.0°F11.1°C 19.0°F-7.2°C 27% 5.1 mph NE8.2 kmh NE 10.7 mph17.2 kmh 30.30 in1026.1 mb 0.00 in0.0 mm 0.00 in/hr0.0 mm/hr 0.00 in0.0 mm
08:23 AM 51.6°F10.9°C 19.5°F-6.9°C 28% 5.8 mph NE9.3 kmh NE 8.7 mph14.0 kmh 30.30 in1026.1 mb 0.00 in0.0 mm 0.00 in/hr0.0 mm/hr 0.00 in0.0 mm
08:13 AM 51.3°F10.7°C 19.2°F-7.1°C 28% 9.5 mph NW15.3 kmh NW 18.9 mph30.4 kmh 30.30 in1026.1 mb 0.00 in0.0 mm 0.00 in/hr0.0 mm/hr 0.00 in0.0 mm
08:03 AM 51.3°F10.7°C 19.2°F-7.1°C 28% 8.3 mph NNW13.4 kmh NNW 13.7 mph22.0 kmh 30.30 in1026.1 mb 0.00 in0.0 mm 0.00 in/hr0.0 mm/hr 0.00 in0.0 mm
07:53 AM 51.1°F10.6°C 19.1°F-7.2°C 28% 6.7 mph NW10.8 kmh NW 17.1 mph27.5 kmh 30.30 in1026.1 mb 0.00 in0.0 mm 0.00 in/hr0.0 mm/hr 0.00 in0.0 mm
07:43 AM 51.1°F10.6°C 19.1°F-7.2°C 28% 7.5 mph NW12.1 kmh NW 13.7 mph22.0 kmh 30.30 in1026.1 mb 0.00 in0.0 mm 0.00 in/hr0.0 mm/hr 0.00 in0.0 mm
07:33 AM 50.7°F10.4°C 18.8°F-7.3°C 28% 4.9 mph N7.9 kmh N 13.1 mph21.1 kmh 30.30 in1026.1 mb 0.00 in0.0 mm 0.00 in/hr0.0 mm/hr 0.00 in0.0 mm
07:23 AM 50.4°F10.2°C 18.4°F-7.6°C 28% 4.7 mph NNE7.6 kmh NNE 9.9 mph15.9 kmh 30.30 in1026.1 mb 0.00 in0.0 mm 0.00 in/hr0.0 mm/hr 0.00 in0.0 mm
07:13 AM 50.4°F10.2°C 18.4°F-7.6°C 28% 9.4 mph ENE15.1 kmh ENE 10.5 mph16.9 kmh 30.30 in1026.1 mb 0.00 in0.0 mm 0.00 in/hr0.0 mm/hr 0.00 in0.0 mm
07:03 AM 50.0°F10.0°C 18.1°F-7.7°C 28% 4.9 mph N7.9 kmh N 7.6 mph12.2 kmh 30.30 in1026.1 mb 0.00 in0.0 mm 0.00 in/hr0.0 mm/hr 0.00 in0.0 mm
06:53 AM 49.5°F9.7°C 17.7°F-7.9°C 28% 5.3 mph NE8.5 kmh NE 11.3 mph18.2 kmh 30.30 in1026.1 mb 0.00 in0.0 mm 0.00 in/hr0.0 mm/hr 0.00 in0.0 mm
06:43 AM 49.2°F9.6°C 17.4°F-8.1°C 28% 2.9 mph WNW4.7 kmh WNW 17.1 mph27.5 kmh 30.30 in1026.1 mb 0.00 in0.0 mm 0.00 in/hr0.0 mm/hr 0.00 in0.0 mm
06:33 AM 49.1°F9.5°C 17.3°F-8.2°C 28% 7.3 mph NNE11.7 kmh NNE 13.1 mph21.1 kmh 30.30 in1026.1 mb 0.00 in0.0 mm 0.00 in/hr0.0 mm/hr 0.00 in0.0 mm
06:13 AM 48.2°F9.0°C 16.6°F-8.6°C 28% 0.6 mph SE1.0 kmh SE 5.2 mph8.4 kmh 30.30 in1026.1 mb 0.00 in0.0 mm 0.00 in/hr0.0 mm/hr 0.00 in0.0 mm
06:03 AM 47.8°F8.8°C 16.3°F-8.7°C 28% 1.9 mph NNW3.1 kmh NNW -- 30.30 in1026.1 mb 0.00 in0.0 mm 0.00 in/hr0.0 mm/hr 0.00 in0.0 mm
05:53 AM 47.3°F8.5°C 15.8°F-9.0°C 28% 4.0 mph SSE6.4 kmh SSE 10.5 mph16.9 kmh 30.30 in1026.1 mb 0.00 in0.0 mm 0.00 in/hr0.0 mm/hr 0.00 in0.0 mm
05:43 AM 46.4°F8.0°C 15.0°F-9.4°C 28% Calm Calm 8.1 mph13.0 kmh 30.30 in1026.1 mb 0.00 in0.0 mm 0.00 in/hr0.0 mm/hr 0.00 in0.0 mm
05:33 AM 46.2°F7.9°C 16.4°F-8.7°C 30% 3.7 mph NW6.0 kmh NW 6.4 mph10.3 kmh 30.30 in1026.1 mb 0.00 in0.0 mm 0.00 in/hr0.0 mm/hr 0.00 in0.0 mm
05:23 AM 46.4°F8.0°C 15.0°F-9.4°C 28% 3.9 mph WNW6.3 kmh WNW 10.5 mph16.9 kmh 30.30 in1026.1 mb 0.00 in0.0 mm 0.00 in/hr0.0 mm/hr 0.00 in0.0 mm
05:13 AM 46.8°F8.2°C 15.3°F-9.3°C 28% 1.6 mph W2.6 kmh W 7.6 mph12.2 kmh 30.30 in1026.1 mb 0.00 in0.0 mm 0.00 in/hr0.0 mm/hr 0.00 in0.0 mm
05:03 AM 46.9°F8.3°C 15.5°F-9.2°C 28% Calm Calm 4.6 mph7.4 kmh 30.30 in1026.1 mb 0.00 in0.0 mm 0.00 in/hr0.0 mm/hr 0.00 in0.0 mm
04:53 AM 47.3°F8.5°C 15.8°F-9.0°C 28% 1.4 mph WSW2.3 kmh WSW 7.0 mph11.3 kmh 30.30 in1026.1 mb 0.00 in0.0 mm 0.00 in/hr0.0 mm/hr 0.00 in0.0 mm
04:43 AM 47.5°F8.6°C 15.9°F-8.9°C 28% 6.4 mph NW10.3 kmh NW 8.1 mph13.0 kmh 30.30 in1026.1 mb 0.00 in0.0 mm 0.00 in/hr0.0 mm/hr 0.00 in0.0 mm
04:33 AM 47.3°F8.5°C 18.9°F-7.3°C 32% 4.9 mph NW7.9 kmh NW 16.0 mph25.7 kmh 30.30 in1026.1 mb 0.00 in0.0 mm 0.00 in/hr0.0 mm/hr 0.00 in0.0 mm
04:23 AM 47.1°F8.4°C 18.7°F-7.4°C 32% 6.0 mph NW9.7 kmh NW 8.1 mph13.0 kmh 30.33 in1027.1 mb 0.00 in0.0 mm 0.00 in/hr0.0 mm/hr 0.00 in0.0 mm
04:13 AM 46.6°F8.1°C 20.3°F-6.5°C 35% 5.4 mph NW8.7 kmh NW 10.7 mph17.2 kmh 30.33 in1027.1 mb 0.00 in0.0 mm 0.00 in/hr0.0 mm/hr 0.00 in0.0 mm
04:03 AM 45.9°F7.7°C 22.9°F-5.1°C 40% 3.5 mph NE5.6 kmh NE 9.3 mph15.0 kmh 30.33 in1027.1 mb 0.00 in0.0 mm 0.00 in/hr0.0 mm/hr 0.00 in0.0 mm
03:53 AM 45.8°F7.7°C 22.8°F-5.1°C 40% 4.3 mph S6.9 kmh S 7.6 mph12.2 kmh 30.33 in1027.1 mb 0.00 in0.0 mm 0.00 in/hr0.0 mm/hr 0.00 in0.0 mm
03:43 AM 45.7°F7.6°C 22.7°F-5.2°C 40% 1.0 mph SSW1.6 kmh SSW 4.6 mph7.4 kmh 30.33 in1027.1 mb 0.00 in0.0 mm 0.00 in/hr0.0 mm/hr 0.00 in0.0 mm
03:23 AM 45.9°F7.7°C 22.9°F-5.1°C 40% 4.9 mph SSE7.9 kmh SSE 9.9 mph15.9 kmh 30.33 in1027.1 mb 0.00 in0.0 mm 0.00 in/hr0.0 mm/hr 0.00 in0.0 mm
03:13 AM 46.0°F7.8°C 23.0°F-5.0°C 40% 1.1 mph SE1.8 kmh SE 5.2 mph8.4 kmh 30.33 in1027.1 mb 0.00 in0.0 mm 0.00 in/hr0.0 mm/hr 0.00 in0.0 mm
03:03 AM 46.2°F7.9°C 23.2°F-4.9°C 40% 1.8 mph S2.9 kmh S 4.1 mph6.6 kmh 30.33 in1027.1 mb 0.00 in0.0 mm 0.00 in/hr0.0 mm/hr 0.00 in0.0 mm
02:53 AM 46.2°F7.9°C 23.2°F-4.9°C 40% 3.1 mph W5.0 kmh W 4.1 mph6.6 kmh 30.36 in1028.1 mb 0.00 in0.0 mm 0.00 in/hr0.0 mm/hr 0.00 in0.0 mm
02:43 AM 46.2°F7.9°C 23.8°F-4.6°C 41% Calm Calm 3.5 mph5.6 kmh 30.36 in1028.1 mb 0.00 in0.0 mm 0.00 in/hr0.0 mm/hr 0.00 in0.0 mm
02:33 AM 46.2°F7.9°C 23.8°F-4.6°C 41% 1.8 mph SW2.9 kmh SW 4.6 mph7.4 kmh 30.36 in1028.1 mb 0.00 in0.0 mm 0.00 in/hr0.0 mm/hr 0.00 in0.0 mm
02:23 AM 45.9°F7.7°C 24.6°F-4.1°C 43% 3.1 mph SW5.0 kmh SW 5.2 mph8.4 kmh 30.36 in1028.1 mb 0.00 in0.0 mm 0.00 in/hr0.0 mm/hr 0.00 in0.0 mm
02:13 AM 45.5°F7.5°C 24.8°F-4.0°C 44% 1.3 mph SSW2.1 kmh SSW 5.2 mph8.4 kmh 30.36 in1028.1 mb 0.00 in0.0 mm 0.00 in/hr0.0 mm/hr 0.00 in0.0 mm
02:03 AM 45.2°F7.3°C 25.1°F-3.8°C 45% 3.8 mph W6.1 kmh W 7.0 mph11.3 kmh 30.36 in1028.1 mb 0.00 in0.0 mm 0.00 in/hr0.0 mm/hr 0.00 in0.0 mm
01:53 AM 45.0°F7.2°C 24.9°F-3.9°C 45% 0.8 mph SW1.3 kmh SW 4.1 mph6.6 kmh 30.36 in1028.1 mb 0.00 in0.0 mm 0.00 in/hr0.0 mm/hr 0.38 in9.7 mm
01:43 AM 45.0°F7.2°C 24.3°F-4.3°C 44% 1.5 mph S2.4 kmh S 3.5 mph5.6 kmh 30.36 in1028.1 mb 0.00 in0.0 mm 0.00 in/hr0.0 mm/hr 0.38 in9.7 mm
01:33 AM 45.1°F7.3°C 24.4°F-4.2°C 44% 2.2 mph WNW3.5 kmh WNW 7.6 mph12.2 kmh 30.36 in1028.1 mb 0.00 in0.0 mm 0.00 in/hr0.0 mm/hr 0.38 in9.7 mm
01:23 AM 45.0°F7.2°C 24.3°F-4.3°C 44% 1.1 mph S1.8 kmh S 3.5 mph5.6 kmh 30.36 in1028.1 mb 0.00 in0.0 mm 0.00 in/hr0.0 mm/hr 0.38 in9.7 mm
01:13 AM 45.1°F7.3°C 24.5°F-4.2°C 44% 5.0 mph SW8.0 kmh SW 7.6 mph12.2 kmh 30.36 in1028.1 mb 0.00 in0.0 mm 0.00 in/hr0.0 mm/hr 0.38 in9.7 mm
01:03 AM 45.1°F7.3°C 23.9°F-4.5°C 43% Calm Calm 5.2 mph8.4 kmh 30.36 in1028.1 mb 0.00 in0.0 mm 0.00 in/hr0.0 mm/hr 0.38 in9.7 mm
12:53 AM 45.3°F7.4°C 24.1°F-4.4°C 43% 1.1 mph NW1.8 kmh NW 4.6 mph7.4 kmh 30.36 in1028.1 mb 0.00 in0.0 mm 0.00 in/hr0.0 mm/hr 0.38 in9.7 mm
12:43 AM 45.5°F7.5°C 24.3°F-4.3°C 43% 3.3 mph WSW5.3 kmh WSW 3.5 mph5.6 kmh 30.39 in1029.1 mb 0.00 in0.0 mm 0.00 in/hr0.0 mm/hr 0.38 in9.7 mm
12:33 AM 45.7°F7.6°C 24.4°F-4.2°C 43% Calm Calm 3.5 mph5.6 kmh 30.39 in1029.1 mb 0.00 in0.0 mm 0.00 in/hr0.0 mm/hr 0.38 in9.7 mm
12:23 AM 45.9°F7.7°C 24.6°F-4.1°C 43% Calm Calm 2.9 mph4.7 kmh 30.36 in1028.1 mb 0.00 in0.0 mm 0.00 in/hr0.0 mm/hr 0.38 in9.7 mm
12:13 AM 45.9°F7.7°C 23.5°F-4.7°C 41% Calm Calm 5.2 mph8.4 kmh 30.36 in1028.1 mb 0.00 in0.0 mm 0.00 in/hr0.0 mm/hr 0.38 in9.7 mm
12:03 AM 46.0°F7.8°C 23.6°F-4.7°C 41% 1.4 mph WSW2.3 kmh WSW 3.5 mph5.6 kmh 30.36 in1028.1 mb 0.00 in0.0 mm 0.00 in/hr0.0 mm/hr 0.38 in9.7 mm